createdAt,value
2022-11-16T00:02:22.783Z,92381.47
2022-11-16T00:04:52.107Z,92380.16
2022-11-16T00:07:21.561Z,92378.94
2022-11-16T00:09:52.473Z,92383.28
2022-11-16T00:12:21.764Z,92376.28
2022-11-16T00:14:51.092Z,92374.88
2022-11-16T00:17:20.416Z,92368.34
2022-11-16T00:19:50.242Z,92369.16
2022-11-16T00:22:19.635Z,92358.00
2022-11-16T00:24:50.732Z,92358.81
2022-11-16T00:27:20.196Z,92354.75
2022-11-16T00:29:49.665Z,92360.84
2022-11-16T00:32:19.007Z,92359.09
2022-11-16T00:34:48.289Z,92354.66
2022-11-16T00:37:17.690Z,92354.94
2022-11-16T00:39:47.051Z,92342.94
2022-11-16T00:42:17.910Z,92336.22
2022-11-16T00:44:47.213Z,92336.50
2022-11-16T00:47:16.674Z,92332.88
2022-11-16T00:51:10.295Z,92330.00
2022-11-16T00:53:39.986Z,92334.53
2022-11-16T00:56:10.188Z,92333.88
2022-11-16T00:58:39.571Z,92333.47
2022-11-16T01:01:10.775Z,92329.56
2022-11-16T01:03:40.866Z,92333.34
2022-11-16T01:06:15.246Z,92331.69
2022-11-16T01:08:46.163Z,92325.78
2022-11-16T01:11:35.599Z,92324.13
2022-11-16T01:14:07.853Z,92319.94
2022-11-16T01:16:37.831Z,92316.53
2022-11-16T01:19:09.017Z,92321.34
2022-11-16T01:21:39.885Z,92313.00
2022-11-16T01:24:09.589Z,92305.75
2022-11-16T01:26:38.984Z,92307.09
2022-11-16T01:29:08.313Z,92313.97
2022-11-16T01:31:37.661Z,92309.84
2022-11-16T01:34:07.030Z,92299.50
2022-11-16T01:36:36.985Z,92303.84
2022-11-16T01:39:08.911Z,92298.03
2022-11-16T01:41:38.267Z,92298.19
2022-11-16T01:44:46.710Z,92302.63
2022-11-16T01:47:18.672Z,92304.28
2022-11-16T01:49:53.618Z,92304.44
2022-11-16T01:52:27.565Z,92297.63
2022-11-16T01:54:58.553Z,92301.84
2022-11-16T01:57:34.419Z,92289.31
2022-11-16T02:00:08.482Z,92285.91
2022-11-16T02:02:37.862Z,92287.72
2022-11-16T02:05:09.272Z,92286.06
2022-11-16T02:08:35.017Z,92285.41
2022-11-16T02:11:41.427Z,92293.97
2022-11-16T02:14:25.645Z,92287.97
2022-11-16T02:17:07.464Z,92293.31
2022-11-16T02:20:10.127Z,92284.84
2022-11-16T02:23:02.209Z,92285.81
2022-11-16T02:25:41.849Z,92289.06
2022-11-16T02:28:34.681Z,92276.84
2022-11-16T02:31:10.506Z,92277.16
2022-11-16T02:33:44.417Z,92279.47
2022-11-16T02:36:20.614Z,92275.72
2022-11-16T02:38:58.133Z,92273.97
2022-11-16T02:41:33.099Z,92272.06
2022-11-16T02:44:11.178Z,92258.59
2022-11-16T02:46:47.532Z,92248.13
2022-11-16T02:49:20.609Z,92244.38
2022-11-16T02:51:50.782Z,92238.13
2022-11-16T02:54:22.674Z,92242.63
2022-11-16T02:56:57.225Z,92242.94
2022-11-16T02:59:32.235Z,92243.69
2022-11-16T03:02:17.699Z,92235.00
2022-11-16T03:04:51.587Z,92232.41
2022-11-16T03:07:25.746Z,92223.41
2022-11-16T03:09:57.102Z,92227.91
2022-11-16T03:12:32.116Z,92224.81
2022-11-16T03:15:06.283Z,92226.34
2022-11-16T03:17:43.288Z,92223.47
2022-11-16T03:20:20.842Z,92221.31
2022-11-16T03:22:55.826Z,92228.88
2022-11-16T03:25:33.537Z,92219.25
2022-11-16T03:28:10.401Z,92207.03
2022-11-16T03:30:44.308Z,92196.38
2022-11-16T03:33:21.228Z,92194.09
2022-11-16T03:35:58.473Z,92193.47
2022-11-16T03:38:29.907Z,92191.06
2022-11-16T03:41:03.225Z,92194.81
2022-11-16T03:43:34.208Z,92200.09
2022-11-16T03:46:03.688Z,92189.81
2022-11-16T03:52:10.281Z,92197.91
2022-11-16T03:54:39.588Z,92186.31
2022-11-16T03:57:15.610Z,92186.19
2022-11-16T03:59:45.397Z,92171.59
2022-11-16T04:02:14.694Z,92171.38
2022-11-16T04:05:01.184Z,92178.13
2022-11-16T04:07:50.285Z,92179.16
2022-11-16T04:10:37.492Z,92191.56
2022-11-16T04:13:24.913Z,92191.19
2022-11-16T04:16:11.829Z,92185.44
2022-11-16T04:18:58.491Z,92181.44
2022-11-16T04:21:48.211Z,92172.41
2022-11-16T04:24:22.359Z,92171.59
2022-11-16T04:27:13.443Z,92176.03
2022-11-16T04:29:43.508Z,92180.91
2022-11-16T04:32:31.007Z,92166.19
2022-11-16T04:35:18.151Z,92164.97
2022-11-16T04:37:50.289Z,92171.97
2022-11-16T04:40:23.833Z,92168.47
2022-11-16T04:42:54.419Z,92162.69
2022-11-16T04:45:41.595Z,92158.34
2022-11-16T04:48:11.278Z,92154.91
2022-11-16T04:50:41.241Z,92150.41
2022-11-16T04:53:11.306Z,92151.81
2022-11-16T04:55:42.486Z,92150.66
2022-11-16T04:58:11.890Z,92147.44
2022-11-16T05:00:41.412Z,92146.06
2022-11-16T05:03:10.754Z,92152.34
2022-11-16T05:05:40.511Z,92157.72
2022-11-16T05:08:09.903Z,92158.63
2022-11-16T05:10:40.667Z,92164.09
2022-11-16T05:13:10.004Z,92160.78
2022-11-16T05:15:39.450Z,92161.91
2022-11-16T05:18:09.006Z,92162.28
2022-11-16T05:20:56.007Z,92164.78
2022-11-16T05:23:42.568Z,92158.88
2022-11-16T05:26:13.515Z,92157.50
2022-11-16T05:28:45.724Z,92155.03
2022-11-16T05:31:15.077Z,92153.84
2022-11-16T05:33:44.655Z,92156.69
2022-11-16T05:36:14.202Z,92151.06
2022-11-16T05:38:43.722Z,92142.78
2022-11-16T05:41:14.673Z,92140.91
2022-11-16T05:43:44.011Z,92139.38
2022-11-16T05:46:13.339Z,92138.53
2022-11-16T05:48:42.749Z,92141.66
2022-11-16T05:51:12.012Z,92140.66
2022-11-16T05:53:41.320Z,92145.84
2022-11-16T05:56:14.490Z,92145.72
2022-11-16T05:58:44.813Z,92143.31
2022-11-16T06:01:14.257Z,92146.53
2022-11-16T06:03:43.888Z,92147.66
2022-11-16T06:06:13.308Z,92149.59
2022-11-16T06:08:42.727Z,92148.41
2022-11-16T06:11:14.655Z,92152.06
2022-11-16T06:13:44.001Z,92154.00
2022-11-16T06:16:13.963Z,92146.41
2022-11-16T06:18:45.715Z,92142.13
2022-11-16T06:21:16.847Z,92142.41
2022-11-16T06:23:46.905Z,92135.84
2022-11-16T06:26:17.718Z,92141.88
2022-11-16T06:28:47.327Z,92130.03
2022-11-16T06:31:16.714Z,92131.19
2022-11-16T06:33:46.107Z,92125.34
2022-11-16T06:36:15.409Z,92126.91
2022-11-16T06:38:44.896Z,92128.81
2022-11-16T06:41:14.219Z,92124.16
2022-11-16T06:43:44.950Z,92111.31
2022-11-16T06:46:14.369Z,92117.31
2022-11-16T06:52:10.120Z,92124.34
2022-11-16T06:54:39.457Z,92123.28
2022-11-16T06:57:08.903Z,92115.13
2022-11-16T06:59:38.522Z,92119.63
2022-11-16T07:02:08.055Z,92113.31
2022-11-16T07:04:37.464Z,92106.34
2022-11-16T07:07:08.426Z,92107.97
2022-11-16T07:09:37.867Z,92104.50
2022-11-16T07:12:07.958Z,92103.34
2022-11-16T07:14:37.236Z,92099.34
2022-11-16T07:17:09.615Z,92095.16
2022-11-16T07:19:40.263Z,92096.31
2022-11-16T07:22:11.080Z,92098.31
2022-11-16T07:24:40.616Z,92096.91
2022-11-16T07:27:10.239Z,92092.53
2022-11-16T07:29:39.555Z,92087.06
2022-11-16T07:32:08.879Z,92088.84
2022-11-16T07:34:38.239Z,92094.72
2022-11-16T07:37:07.557Z,92089.00
2022-11-16T07:39:38.463Z,92095.78
2022-11-16T07:42:11.982Z,92100.75
2022-11-16T07:44:41.630Z,92089.59
2022-11-16T07:47:11.009Z,92090.59
2022-11-16T07:49:40.429Z,92091.13
2022-11-16T07:52:11.795Z,92090.28
2022-11-16T07:54:42.641Z,92085.28
2022-11-16T07:57:12.022Z,92082.91
2022-11-16T07:59:41.387Z,92077.59
2022-11-16T08:02:12.069Z,92078.25
2022-11-16T08:04:41.480Z,92076.94
2022-11-16T08:07:11.715Z,92073.09
2022-11-16T08:09:42.765Z,92080.16
2022-11-16T08:12:12.168Z,92079.81
2022-11-16T08:14:42.156Z,92074.13
2022-11-16T08:17:11.432Z,92078.81
2022-11-16T08:19:42.487Z,92072.69
2022-11-16T08:22:11.853Z,92072.59
2022-11-16T08:24:42.826Z,92075.91
2022-11-16T08:27:13.331Z,92065.41
2022-11-16T08:29:42.605Z,92063.44
2022-11-16T08:32:12.005Z,92067.88
2022-11-16T08:34:41.442Z,92062.41
2022-11-16T08:37:10.829Z,92055.84
2022-11-16T08:39:41.753Z,92063.31
2022-11-16T08:42:11.284Z,92060.25
2022-11-16T08:44:40.919Z,92055.31
2022-11-16T08:47:10.426Z,92059.56
2022-11-16T08:49:41.989Z,92055.00
2022-11-16T08:52:14.633Z,92054.47
2022-11-16T08:54:45.431Z,92045.81
2022-11-16T08:57:14.873Z,92045.03
2022-11-16T08:59:44.679Z,92044.97
2022-11-16T09:02:14.296Z,92042.38
2022-11-16T09:04:44.788Z,92042.28
2022-11-16T09:07:14.259Z,92033.34
2022-11-16T09:09:45.125Z,92036.38
2022-11-16T09:12:14.582Z,92039.56
2022-11-16T09:14:45.145Z,92039.09
2022-11-16T09:17:18.789Z,92038.31
2022-11-16T09:19:51.176Z,92028.63
2022-11-16T09:22:20.624Z,92029.97
2022-11-16T09:24:51.578Z,92017.34
2022-11-16T09:27:21.129Z,92017.03
2022-11-16T09:29:50.505Z,92019.66
2022-11-16T09:32:19.923Z,92012.63
2022-11-16T09:34:49.377Z,92004.56
2022-11-16T09:37:18.831Z,92003.28
2022-11-16T09:39:49.650Z,91993.16
2022-11-16T09:42:34.514Z,92001.38
2022-11-16T09:45:08.748Z,91993.19
2022-11-16T09:47:50.425Z,91989.97
2022-11-16T09:52:24.103Z,91988.63
2022-11-16T09:54:55.555Z,91985.03
2022-11-16T09:57:34.169Z,91978.94
2022-11-16T10:00:13.167Z,91978.06
2022-11-16T10:02:49.925Z,91977.34
2022-11-16T10:05:25.940Z,91971.09
2022-11-16T10:08:06.438Z,91964.19
2022-11-16T10:10:41.369Z,91964.00
2022-11-16T10:13:27.432Z,91959.34
2022-11-16T10:16:08.194Z,91945.75
2022-11-16T10:18:54.288Z,91937.16
2022-11-16T10:21:41.146Z,91939.59
2022-11-16T10:24:34.959Z,91929.34
2022-11-16T10:27:27.838Z,91930.81
2022-11-16T10:30:04.189Z,91931.63
2022-11-16T10:32:36.946Z,91928.69
2022-11-16T10:35:17.378Z,91935.72
2022-11-16T10:37:50.389Z,91927.19
2022-11-16T10:40:25.947Z,91923.25
2022-11-16T10:43:04.528Z,91921.09
2022-11-16T10:45:44.809Z,91915.47
2022-11-16T10:48:28.264Z,91914.81
2022-11-16T10:50:58.016Z,91916.59
2022-11-16T10:53:34.637Z,91905.47
2022-11-16T10:56:18.973Z,91908.22
2022-11-16T10:59:02.591Z,91915.44
2022-11-16T11:01:38.627Z,91912.28
2022-11-16T11:04:24.022Z,91898.31
2022-11-16T11:06:55.746Z,91899.75
2022-11-16T11:09:32.342Z,91888.44
2022-11-16T11:12:31.267Z,91884.16
2022-11-16T11:15:04.820Z,91880.84
2022-11-16T11:17:36.215Z,91884.28
2022-11-16T11:20:08.132Z,91886.66
2022-11-16T11:22:48.013Z,91886.91
2022-11-16T11:25:24.016Z,91886.91
2022-11-16T11:28:07.152Z,91879.88
2022-11-16T11:30:37.742Z,91878.06
2022-11-16T11:33:13.796Z,91880.84
2022-11-16T11:35:43.419Z,91875.78
2022-11-16T11:38:17.492Z,91877.25
2022-11-16T11:41:00.186Z,91878.06
2022-11-16T11:43:33.695Z,91875.59
2022-11-16T11:46:13.498Z,91882.13
2022-11-16T11:48:53.362Z,91875.34
2022-11-16T11:51:31.320Z,91873.84
2022-11-16T11:54:02.594Z,91869.13
2022-11-16T11:56:34.730Z,91869.50
2022-11-16T11:59:07.160Z,91868.97
2022-11-16T12:02:09.901Z,91863.22
2022-11-16T12:05:14.272Z,91863.53
2022-11-16T12:08:04.526Z,91859.13
2022-11-16T12:10:46.310Z,91865.47
2022-11-16T12:13:41.217Z,91859.88
2022-11-16T12:16:23.413Z,91853.59
2022-11-16T12:19:14.442Z,91851.72
2022-11-16T12:21:56.387Z,91858.38
2022-11-16T12:24:49.389Z,91856.38
2022-11-16T12:27:27.158Z,91855.16
2022-11-16T12:30:08.619Z,91851.53
2022-11-16T12:33:01.446Z,91847.72
2022-11-16T12:35:48.692Z,91845.53
2022-11-16T12:38:53.517Z,91837.84
2022-11-16T12:41:57.205Z,91832.75
2022-11-16T12:44:49.930Z,91832.41
2022-11-16T12:47:30.828Z,91834.31
2022-11-16T12:52:32.912Z,91828.94
2022-11-16T12:55:26.736Z,91827.44
2022-11-16T12:58:20.656Z,91825.13
2022-11-16T13:01:06.688Z,91830.34
2022-11-16T13:03:44.259Z,91829.25
2022-11-16T13:06:20.708Z,91832.00
2022-11-16T13:09:00.166Z,91839.03
2022-11-16T13:11:36.799Z,91835.75
2022-11-16T13:14:12.438Z,91837.00
2022-11-16T13:16:42.760Z,91829.28
2022-11-16T13:19:16.768Z,91828.47
2022-11-16T13:21:55.658Z,91829.91
2022-11-16T13:24:51.049Z,91844.41
2022-11-16T13:27:36.244Z,91832.97
2022-11-16T13:30:18.096Z,91836.25
2022-11-16T13:33:16.479Z,91829.53
2022-11-16T13:35:46.116Z,91826.47
2022-11-16T13:38:15.999Z,91819.59
2022-11-16T13:40:46.822Z,91826.22
2022-11-16T13:43:22.824Z,91828.63
2022-11-16T13:46:03.375Z,91832.78
2022-11-16T13:48:38.438Z,91823.31
2022-11-16T13:51:17.709Z,91828.25
2022-11-16T13:54:43.136Z,91838.53
2022-11-16T13:56:53.816Z,91837.44
2022-11-16T13:59:29.250Z,91830.25
2022-11-16T14:02:01.950Z,91826.97
2022-11-16T14:04:58.140Z,91821.06
2022-11-16T14:07:43.338Z,91812.19
2022-11-16T14:10:14.945Z,91821.78
2022-11-16T14:12:56.184Z,91817.16
2022-11-16T14:15:34.697Z,91814.44
2022-11-16T14:18:35.304Z,91824.97
2022-11-16T14:21:16.881Z,91823.03
2022-11-16T14:24:18.952Z,91822.81
2022-11-16T14:27:02.660Z,91820.47
2022-11-16T14:29:49.578Z,91818.31
2022-11-16T14:32:25.016Z,91814.78
2022-11-16T14:34:58.235Z,91814.88
2022-11-16T14:37:36.418Z,91815.59
2022-11-16T14:40:15.307Z,91815.19
2022-11-16T14:43:15.468Z,91815.47
2022-11-16T14:45:53.768Z,91811.78
2022-11-16T14:48:27.183Z,91817.03
2022-11-16T14:51:09.188Z,91820.25
2022-11-16T14:53:42.629Z,91817.09
2022-11-16T14:56:15.339Z,91811.59
2022-11-16T14:58:53.576Z,91819.19
2022-11-16T15:01:29.716Z,91815.47
2022-11-16T15:04:04.114Z,91810.53
2022-11-16T15:06:42.694Z,91809.31
2022-11-16T15:09:21.590Z,91807.69
2022-11-16T15:12:10.048Z,91811.09
2022-11-16T15:14:46.188Z,91823.19
2022-11-16T15:17:20.771Z,91819.09
2022-11-16T15:19:57.675Z,91822.94
2022-11-16T15:22:29.487Z,91822.38
2022-11-16T15:25:00.964Z,91825.41
2022-11-16T15:27:40.352Z,91822.41
2022-11-16T15:30:28.941Z,91825.81
2022-11-16T15:33:00.154Z,91821.16
2022-11-16T15:35:33.476Z,91829.13
2022-11-16T15:38:05.477Z,91830.50
2022-11-16T15:40:36.420Z,91829.13
2022-11-16T15:43:08.322Z,91831.03
2022-11-16T15:45:39.941Z,91832.28
2022-11-16T15:48:17.547Z,91827.06
2022-11-16T15:52:10.879Z,91830.75
2022-11-16T15:54:54.087Z,91824.00
2022-11-16T15:57:25.609Z,91830.41
2022-11-16T15:59:57.636Z,91826.97
2022-11-16T16:02:31.061Z,91830.22
2022-11-16T16:05:00.383Z,91834.47
2022-11-16T16:07:42.634Z,91834.03
2022-11-16T16:10:25.918Z,91833.56
2022-11-16T16:12:57.481Z,91836.47
2022-11-16T16:15:30.234Z,91830.44
2022-11-16T16:18:01.096Z,91835.09
2022-11-16T16:20:32.876Z,91838.06
2022-11-16T16:23:12.808Z,91841.34
2022-11-16T16:25:47.448Z,91834.38
2022-11-16T16:28:20.613Z,91833.69
2022-11-16T16:30:53.429Z,91828.50
2022-11-16T16:33:25.843Z,91835.34
2022-11-16T16:35:55.338Z,91830.38
2022-11-16T16:38:26.053Z,91842.00
2022-11-16T16:40:56.643Z,91836.38
2022-11-16T16:43:26.026Z,91842.94
2022-11-16T16:45:55.509Z,91837.41
2022-11-16T16:48:25.021Z,91837.13
2022-11-16T16:50:54.393Z,91837.63
2022-11-16T16:53:25.179Z,91836.38
2022-11-16T16:55:54.877Z,91833.31
2022-11-16T16:58:24.144Z,91837.97
2022-11-16T17:00:58.276Z,91832.06
2022-11-16T17:03:31.163Z,91822.59
2022-11-16T17:06:03.062Z,91826.72
2022-11-16T17:08:37.769Z,91829.09
2022-11-16T17:11:07.717Z,91824.72
2022-11-16T17:13:37.118Z,91825.09
2022-11-16T17:16:07.931Z,91814.25
2022-11-16T17:18:37.287Z,91817.41
2022-11-16T17:21:08.883Z,91822.22
2022-11-16T17:23:39.638Z,91821.13
2022-11-16T17:26:10.613Z,91821.28
2022-11-16T17:28:40.018Z,91821.13
2022-11-16T17:31:12.290Z,91817.00
2022-11-16T17:33:43.257Z,91825.78
2022-11-16T17:36:18.016Z,91822.22
2022-11-16T17:38:48.914Z,91820.06
2022-11-16T17:41:21.798Z,91827.88
2022-11-16T17:43:54.661Z,91825.97
2022-11-16T17:46:26.037Z,91818.72
2022-11-16T17:48:56.230Z,91821.19
2022-11-16T17:51:27.281Z,91814.91
2022-11-16T17:53:58.343Z,91815.59
2022-11-16T17:56:29.594Z,91815.47
2022-11-16T17:58:59.759Z,91810.28
2022-11-16T18:01:29.460Z,91812.88
2022-11-16T18:03:58.903Z,91815.09
2022-11-16T18:06:28.695Z,91814.13
2022-11-16T18:08:59.864Z,91814.69
2022-11-16T18:11:30.636Z,91819.09
2022-11-16T18:14:01.931Z,91814.13
2022-11-16T18:16:33.670Z,91813.56
2022-11-16T18:19:05.771Z,91810.28
2022-11-16T18:21:40.513Z,91811.66
2022-11-16T18:24:12.279Z,91809.75
2022-11-16T18:26:42.056Z,91812.91
2022-11-16T18:29:16.210Z,91806.63
2022-11-16T18:31:45.788Z,91808.28
2022-11-16T18:34:19.591Z,91804.47
2022-11-16T18:36:50.984Z,91806.09
2022-11-16T18:39:21.891Z,91801.72
2022-11-16T18:41:55.021Z,91798.16
2022-11-16T18:44:25.135Z,91801.56
2022-11-16T18:46:54.455Z,91800.66
2022-11-16T18:52:09.995Z,91805.56
2022-11-16T18:54:39.467Z,91801.47
2022-11-16T18:57:08.761Z,91805.28
2022-11-16T18:59:38.287Z,91797.88
2022-11-16T19:02:07.943Z,91798.69
2022-11-16T19:04:40.208Z,91804.47
2022-11-16T19:07:11.068Z,91800.06
2022-11-16T19:09:40.552Z,91801.44
2022-11-16T19:12:10.039Z,91800.28
2022-11-16T19:14:40.056Z,91793.44
2022-11-16T19:17:10.393Z,91795.34
2022-11-16T19:19:39.692Z,91792.16
2022-11-16T19:22:10.480Z,91793.28
2022-11-16T19:24:39.846Z,91788.88
2022-11-16T19:27:09.125Z,91795.63
2022-11-16T19:29:38.516Z,91787.81
2022-11-16T19:32:08.094Z,91791.34
2022-11-16T19:34:37.416Z,91788.19
2022-11-16T19:37:06.760Z,91782.44
2022-11-16T19:39:37.544Z,91795.69
2022-11-16T19:42:07.395Z,91788.28
2022-11-16T19:44:36.874Z,91786.66
2022-11-16T19:47:06.756Z,91787.47
2022-11-16T19:49:36.150Z,91794.56
2022-11-16T19:52:06.097Z,91787.84
2022-11-16T19:54:36.810Z,91793.44
2022-11-16T19:57:06.307Z,91788.25
2022-11-16T19:59:35.688Z,91786.03
2022-11-16T20:02:05.287Z,91778.03
2022-11-16T20:04:34.680Z,91780.19
2022-11-16T20:07:05.754Z,91782.47
2022-11-16T20:09:38.287Z,91784.50
2022-11-16T20:12:08.094Z,91784.88
2022-11-16T20:14:37.545Z,91780.75
2022-11-16T20:17:06.902Z,91781.59
2022-11-16T20:19:36.200Z,91784.22
2022-11-16T20:22:06.675Z,91774.63
2022-11-16T20:24:37.546Z,91777.09
2022-11-16T20:27:07.781Z,91776.41
2022-11-16T20:29:37.199Z,91769.44
2022-11-16T20:32:06.891Z,91768.72
2022-11-16T20:34:36.987Z,91762.84
2022-11-16T20:37:07.666Z,91767.59
2022-11-16T20:39:38.541Z,91777.16
2022-11-16T20:42:07.845Z,91772.22
2022-11-16T20:44:38.416Z,91780.13
2022-11-16T20:47:07.854Z,91778.09
2022-11-16T20:49:37.168Z,91782.09
2022-11-16T20:52:06.954Z,91780.06
2022-11-16T20:54:37.800Z,91774.34
2022-11-16T20:57:07.460Z,91776.56
2022-11-16T20:59:36.829Z,91780.03
2022-11-16T21:02:06.148Z,91774.94
2022-11-16T21:04:35.411Z,91783.69
2022-11-16T21:07:04.729Z,91781.91
2022-11-16T21:09:54.274Z,91790.53
2022-11-16T21:12:44.578Z,91786.72
2022-11-16T21:15:13.934Z,91786.22
2022-11-16T21:17:43.267Z,91778.97
2022-11-16T21:20:26.791Z,91772.03
2022-11-16T21:22:56.626Z,91777.09
2022-11-16T21:25:25.975Z,91775.31
2022-11-16T21:27:57.327Z,91776.13
2022-11-16T21:30:26.585Z,91771.50
2022-11-16T21:32:55.916Z,91769.56
2022-11-16T21:35:27.262Z,91768.13
2022-11-16T21:37:56.675Z,91761.56
2022-11-16T21:40:26.107Z,91752.03
2022-11-16T21:42:56.980Z,91750.69
2022-11-16T21:45:26.339Z,91750.81
2022-11-16T21:47:55.667Z,91750.13
2022-11-16T21:52:09.703Z,91745.72
2022-11-16T21:54:48.562Z,91743.81
2022-11-16T21:57:18.585Z,91741.72
2022-11-16T21:59:47.990Z,91739.66
2022-11-16T22:02:17.197Z,91743.47
2022-11-16T22:05:04.258Z,91743.06
2022-11-16T22:07:36.983Z,91739.38
2022-11-16T22:10:09.254Z,91738.97
2022-11-16T22:12:39.061Z,91734.22
2022-11-16T22:15:10.046Z,91733.00
2022-11-16T22:17:44.473Z,91729.56
2022-11-16T22:20:14.694Z,91727.25
2022-11-16T22:22:45.482Z,91723.25
2022-11-16T22:25:16.021Z,91722.00
2022-11-16T22:28:13.790Z,91718.44
2022-11-16T22:30:38.932Z,91712.97
2022-11-16T22:33:08.374Z,91711.31
2022-11-16T22:35:39.521Z,91710.09
2022-11-16T22:38:10.303Z,91702.31
2022-11-16T22:40:39.553Z,91714.75
2022-11-16T22:43:08.866Z,91716.66
2022-11-16T22:45:38.231Z,91719.13
2022-11-16T22:48:08.146Z,91707.75
2022-11-16T22:50:37.587Z,91716.41
2022-11-16T22:53:08.490Z,91721.72
2022-11-16T22:55:38.712Z,91708.59
2022-11-16T22:58:08.816Z,91717.22
2022-11-16T23:00:42.002Z,91718.88
2022-11-16T23:03:11.889Z,91710.81
2022-11-16T23:05:41.215Z,91713.13
2022-11-16T23:08:11.948Z,91716.44
2022-11-16T23:10:55.003Z,91713.84
2022-11-16T23:13:41.652Z,91712.88
2022-11-16T23:16:11.423Z,91680.69
2022-11-16T23:18:40.623Z,91682.91
2022-11-16T23:21:28.302Z,91678.13
2022-11-16T23:24:16.472Z,91669.09
2022-11-16T23:27:03.507Z,91669.78
2022-11-16T23:29:33.008Z,91677.44
2022-11-16T23:32:02.300Z,91678.66
2022-11-16T23:34:31.642Z,91682.94
2022-11-16T23:37:05.085Z,91685.81
2022-11-16T23:39:36.272Z,91679.88
2022-11-16T23:42:23.450Z,91686.75
2022-11-16T23:44:53.436Z,91674.31
2022-11-16T23:47:22.998Z,91684.31
2022-11-16T23:49:52.460Z,91674.72
2022-11-16T23:52:21.799Z,91671.41
2022-11-16T23:54:52.668Z,91675.25
2022-11-16T23:57:21.976Z,91678.56
2022-11-16T23:59:51.410Z,91667.31
